Time;durP1;ratioP1;P1;durP2;ratioP2;P2;SDS_P1;SDS_P2;PMS_P1;PMS_P2;Temp;Humidity;BMP_temperature;BMP_pressure;BME280_temperature;BME280_humidity;BME280_pressure;Samples;Min_cycle;Max_cycle;Signal;HPM_P1;HPM_P2
2023/04/01 00:00:16;;;;;;;1.17;0.60;;;;;;;10.40;nan;98461.34;4927537;29;20197;-83
2023/04/01 00:02:42;;;;;;;2.00;0.70;;;;;;;10.34;nan;98467.09;4923482;29;20201;-85
2023/04/01 00:05:10;;;;;;;1.40;0.80;;;;;;;10.28;nan;98451.81;4922461;29;20505;-84
2023/04/01 00:07:36;;;;;;;1.80;0.80;;;;;;;10.21;nan;98458.50;4920973;29;20564;-85
2023/04/01 00:10:02;;;;;;;1.17;1.08;;;;;;;10.15;nan;98454.59;4923552;29;20611;-84
2023/04/01 00:12:28;;;;;;;0.90;0.68;;;;;;;10.09;nan;98452.44;4922996;29;20189;-84
2023/04/01 00:14:53;;;;;;;0.60;0.50;;;;;;;10.05;nan;98458.06;4922954;29;20211;-84
2023/04/01 00:17:18;;;;;;;0.70;0.50;;;;;;;10.03;nan;98470.47;4922784;29;20210;-84
2023/04/01 00:19:44;;;;;;;0.90;0.60;;;;;;;10.01;nan;98461.88;4922966;29;20194;-85
2023/04/01 00:22:11;;;;;;;0.90;0.60;;;;;;;9.96;nan;98444.72;4923941;29;20212;-84
2023/04/01 00:24:37;;;;;;;0.63;0.55;;;;;;;9.93;nan;98438.88;4923414;29;20222;-85
2023/04/01 00:27:03;;;;;;;0.80;0.60;;;;;;;9.91;nan;98441.63;4922611;29;20284;-84
2023/04/01 00:29:29;;;;;;;0.90;0.73;;;;;;;9.88;nan;98452.38;4930756;29;20393;-84
2023/04/01 00:31:55;;;;;;;1.00;0.63;;;;;;;9.84;nan;98447.50;4922323;29;20305;-85
2023/04/01 00:34:21;;;;;;;1.45;0.98;;;;;;;9.82;nan;98446.75;4921820;29;20544;-84
2023/04/01 00:36:46;;;;;;;2.03;1.00;;;;;;;9.79;nan;98450.47;4923203;29;20200;-84
2023/04/01 00:39:11;;;;;;;1.03;0.60;;;;;;;9.77;nan;98449.75;4938155;29;20189;-84
2023/04/01 00:41:37;;;;;;;0.90;0.70;;;;;;;9.72;nan;98449.25;4924503;29;20281;-84
2023/04/01 00:44:34;;;;;;;1.73;0.80;;;;;;;9.73;nan;98448.34;4926810;29;20715;-85
2023/04/01 00:47:00;;;;;;;0.98;0.70;;;;;;;9.72;nan;98441.41;4911145;29;20199;-85
2023/04/01 00:49:33;;;;;;;0.95;0.80;;;;;;;9.72;nan;98444.03;4924666;29;20197;-84
2023/04/01 00:52:01;;;;;;;0.93;0.80;;;;;;;9.72;nan;98449.25;4915900;29;20203;-84
2023/04/01 00:54:29;;;;;;;1.20;0.75;;;;;;;9.71;nan;98451.06;4925891;29;20326;-85
2023/04/01 00:57:19;;;;;;;2.15;1.02;;;;;;;9.72;nan;98459.75;4918050;29;20197;-85
2023/04/01 00:59:47;;;;;;;4.18;1.15;;;;;;;9.72;nan;98451.88;4933962;28;20657;-84
2023/04/01 01:02:15;;;;;;;3.30;0.90;;;;;;;9.72;nan;98455.38;4925111;29;20636;-85
2023/04/01 01:04:41;;;;;;;1.27;0.80;;;;;;;9.74;nan;98450.81;4915296;29;20280;-86
2023/04/01 01:07:21;;;;;;;0.87;0.80;;;;;;;9.74;nan;98442.13;4919930;29;20217;-84
2023/04/01 01:09:55;;;;;;;2.15;0.90;;;;;;;9.73;nan;98440.47;4923964;29;20227;-84
2023/04/01 01:12:30;;;;;;;2.78;1.35;;;;;;;9.75;nan;98431.53;4916736;29;20677;-84
2023/04/01 01:14:55;;;;;;;2.65;1.38;;;;;;;9.75;nan;98425.44;4915875;29;20229;-84
2023/04/01 01:17:36;;;;;;;1.20;0.80;;;;;;;9.73;nan;98425.56;4921707;29;20214;-84
2023/04/01 01:20:46;;;;;;;3.03;1.48;;;;;;;9.73;nan;98428.19;4925232;29;20201;-84
2023/04/01 01:23:33;;;;;;;7.90;1.45;;;;;;;9.73;nan;98428.19;4930605;29;20292;-85
2023/04/01 01:26:01;;;;;;;3.10;1.00;;;;;;;9.75;nan;98414.97;4928949;29;20680;-84
2023/04/01 01:29:04;;;;;;;3.60;1.20;;;;;;;9.77;nan;98407.78;4924508;29;20188;-84
2023/04/01 01:31:37;;;;;;;4.13;1.20;;;;;;;9.81;nan;98409.22;4939520;29;20231;-86
2023/04/01 01:34:20;;;;;;;4.68;1.50;;;;;;;9.82;nan;98400.38;4921548;29;20223;-85
2023/04/01 01:36:51;;;;;;;2.50;1.20;;;;;;;9.85;nan;98407.19;4938684;29;20231;-85
2023/04/01 01:39:20;;;;;;;1.27;0.90;;;;;;;9.87;nan;98406.09;4939098;29;20245;-84
2023/04/01 01:41:49;;;;;;;3.53;1.20;;;;;;;9.90;nan;98411.09;4938069;29;20221;-85
2023/04/01 01:44:16;;;;;;;3.75;1.23;;;;;;;9.94;nan;98403.84;4935967;29;20769;-85
2023/04/01 01:46:44;;;;;;;5.47;1.33;;;;;;;9.96;nan;98412.41;4940745;29;20221;-84
2023/04/01 01:49:12;;;;;;;8.43;1.35;;;;;;;9.98;nan;98398.19;4929648;29;20211;-84
2023/04/01 01:51:39;;;;;;;11.82;3.55;;;;;;;10.01;nan;98402.38;4924890;29;20214;-84
2023/04/01 01:54:06;;;;;;;4.55;1.15;;;;;;;10.00;nan;98398.09;4930692;29;20272;-84
2023/04/01 01:56:34;;;;;;;4.67;1.43;;;;;;;10.02;nan;98395.31;4924731;29;20300;-83
2023/04/01 01:59:05;;;;;;;3.88;1.10;;;;;;;10.02;nan;98405.81;4940176;28;20337;-85
2023/04/01 02:01:35;;;;;;;5.03;1.40;;;;;;;10.01;nan;98397.13;4938964;29;20221;-84
2023/04/01 02:04:10;;;;;;;4.75;1.40;;;;;;;10.02;nan;98406.69;4930478;29;20456;-84
2023/04/01 02:06:41;;;;;;;3.65;1.23;;;;;;;10.09;nan;98407.00;4930536;29;20530;-84
2023/04/01 02:09:10;;;;;;;6.80;1.55;;;;;;;10.12;nan;98415.44;4924194;29;20213;-85
2023/04/01 02:11:43;;;;;;;4.03;1.77;;;;;;;10.17;nan;98412.47;4924378;29;20222;-84
2023/04/01 02:14:16;;;;;;;9.80;1.80;;;;;;;10.19;nan;98416.63;4940475;29;20584;-85
2023/04/01 02:16:59;;;;;;;7.30;1.50;;;;;;;10.24;nan;98415.44;4939516;29;20577;-85
2023/04/01 02:19:32;;;;;;;6.75;2.28;;;;;;;10.25;nan;98411.84;4924202;29;20306;-86
2023/04/01 02:22:02;;;;;;;3.53;1.35;;;;;;;10.25;nan;98412.66;4942497;29;20205;-85
2023/04/01 02:24:30;;;;;;;2.65;1.20;;;;;;;10.28;nan;98409.81;4926592;29;20345;-85
2023/04/01 02:26:56;;;;;;;2.30;1.20;;;;;;;10.29;nan;98410.66;4925011;29;20224;-85
2023/04/01 02:29:24;;;;;;;6.53;1.73;;;;;;;10.32;nan;98424.38;4930737;29;20212;-85
2023/04/01 02:31:51;;;;;;;6.60;1.45;;;;;;;10.32;nan;98415.69;4927309;29;20687;-85
2023/04/01 02:34:16;;;;;;;5.63;2.13;;;;;;;10.31;nan;98406.13;4922998;29;20205;-84
2023/04/01 02:36:42;;;;;;;5.57;1.90;;;;;;;10.27;nan;98405.53;4924187;29;20226;-85
2023/04/01 02:39:08;;;;;;;3.83;2.00;;;;;;;10.27;nan;98410.78;4925313;29;20516;-84
2023/04/01 02:41:41;;;;;;;4.20;1.47;;;;;;;10.22;nan;98415.56;4945051;29;20236;-86
2023/04/01 02:44:08;;;;;;;1.75;1.40;;;;;;;10.22;nan;98417.34;4937162;29;20485;-85
2023/04/01 02:46:33;;;;;;;5.70;1.45;;;;;;;10.20;nan;98417.47;4924850;29;20213;-85
2023/04/01 02:48:58;;;;;;;2.40;1.33;;;;;;;10.21;nan;98403.41;4924720;29;20221;-84
2023/04/01 02:51:26;;;;;;;5.07;1.53;;;;;;;10.19;nan;98421.06;4940592;29;20231;-84
2023/04/01 02:53:51;;;;;;;3.90;1.00;;;;;;;10.19;nan;98418.44;4938507;29;20252;-85
2023/04/01 02:56:17;;;;;;;7.80;1.77;;;;;;;10.20;nan;98420.91;4937549;28;20200;-85
2023/04/01 02:58:42;;;;;;;1.73;1.03;;;;;;;10.19;nan;98428.91;4923695;29;20233;-84
2023/04/01 03:01:08;;;;;;;2.10;0.80;;;;;;;10.18;nan;98429.91;4927603;29;20304;-84
2023/04/01 03:03:33;;;;;;;2.33;1.00;;;;;;;10.15;nan;98423.09;4939132;29;20286;-84
2023/04/01 03:06:05;;;;;;;6.10;1.63;;;;;;;10.08;nan;98431.59;4923574;29;20571;-85
2023/04/01 03:08:30;;;;;;;2.70;1.30;;;;;;;10.04;nan;98427.53;4925838;29;20257;-84
2023/04/01 03:10:56;;;;;;;3.43;1.13;;;;;;;9.98;nan;98423.59;4935471;29;20217;-85
2023/04/01 03:13:21;;;;;;;2.07;0.80;;;;;;;9.97;nan;98433.28;4928721;29;20260;-85
2023/04/01 03:15:47;;;;;;;4.50;1.37;;;;;;;9.93;nan;98431.00;4925823;29;20687;-84
2023/04/01 03:18:13;;;;;;;1.88;1.00;;;;;;;9.91;nan;98431.16;4931969;29;20227;-84
2023/04/01 03:20:39;;;;;;;3.03;1.63;;;;;;;9.90;nan;98428.63;4928982;29;20212;-84
2023/04/01 03:23:05;;;;;;;2.70;1.10;;;;;;;9.85;nan;98436.84;4925611;29;20264;-84
2023/04/01 03:25:30;;;;;;;8.10;2.00;;;;;;;9.85;nan;98421.13;4938618;28;20709;-84
2023/04/01 03:27:56;;;;;;;4.80;1.70;;;;;;;9.85;nan;98425.53;4927993;29;20726;-84
2023/04/01 03:30:21;;;;;;;4.80;2.47;;;;;;;9.84;nan;98414.22;4922407;29;20608;-84
2023/04/01 03:32:49;;;;;;;3.40;1.58;;;;;;;9.81;nan;98419.72;4931511;29;20630;-85
2023/04/01 03:35:15;;;;;;;6.53;2.23;;;;;;;9.79;nan;98436.53;4939428;28;20819;-85
2023/04/01 03:37:40;;;;;;;7.73;2.50;;;;;;;9.78;nan;98430.44;4919282;29;20297;-84
2023/04/01 03:40:06;;;;;;;9.50;2.17;;;;;;;9.77;nan;98434.00;4922551;29;20316;-84
2023/04/01 03:42:32;;;;;;;8.68;1.85;;;;;;;9.74;nan;98429.00;4923844;29;20246;-84
2023/04/01 03:44:57;;;;;;;4.10;1.43;;;;;;;9.75;nan;98430.69;4932632;29;20349;-84
2023/04/01 03:47:23;;;;;;;3.50;2.30;;;;;;;9.73;nan;98417.69;4917757;29;20206;-84
2023/04/01 03:49:48;;;;;;;4.33;1.30;;;;;;;9.73;nan;98422.94;4926675;29;20206;-84
2023/04/01 03:52:13;;;;;;;1.97;0.87;;;;;;;9.74;nan;98421.16;4925558;29;20581;-84
2023/04/01 03:54:39;;;;;;;1.43;1.03;;;;;;;9.74;nan;98419.34;4937914;29;20416;-84
2023/04/01 03:57:05;;;;;;;3.03;1.40;;;;;;;9.73;nan;98419.50;4932778;29;20536;-84
2023/04/01 03:59:30;;;;;;;5.15;1.00;;;;;;;9.73;nan;98412.44;4934964;29;20207;-84
2023/04/01 04:01:56;;;;;;;2.53;1.07;;;;;;;9.73;nan;98416.88;4921278;29;20205;-84
2023/04/01 04:04:22;;;;;;;1.77;0.80;;;;;;;9.71;nan;98408.28;4917147;29;20567;-84
2023/04/01 04:06:47;;;;;;;1.00;0.90;;;;;;;9.72;nan;98412.56;4926100;29;20453;-85
2023/04/01 04:09:14;;;;;;;2.53;0.93;;;;;;;9.72;nan;98421.28;4926835;29;20212;-84
2023/04/01 04:11:39;;;;;;;4.27;0.93;;;;;;;9.71;nan;98422.22;4920922;29;20217;-85
2023/04/01 04:14:05;;;;;;;2.23;0.90;;;;;;;9.70;nan;98422.34;4922727;29;20222;-85
2023/04/01 04:16:30;;;;;;;2.40;1.07;;;;;;;9.71;nan;98424.00;4936830;29;20228;-84
2023/04/01 04:18:59;;;;;;;4.65;1.55;;;;;;;9.71;nan;98422.22;4923912;29;20265;-85
2023/04/01 04:21:24;;;;;;;4.10;1.70;;;;;;;9.72;nan;98412.56;4927995;29;20221;-84
2023/04/01 04:23:51;;;;;;;3.40;1.13;;;;;;;9.71;nan;98411.72;4933823;29;20238;-84
2023/04/01 04:26:18;;;;;;;5.50;1.17;;;;;;;9.71;nan;98411.72;4938137;29;20197;-85
2023/04/01 04:28:49;;;;;;;5.13;1.38;;;;;;;9.71;nan;98408.28;4931551;29;20299;-84
2023/04/01 04:31:24;;;;;;;2.38;0.90;;;;;;;9.72;nan;98410.78;4939204;29;20215;-84
2023/04/01 04:33:51;;;;;;;2.65;1.38;;;;;;;9.72;nan;98402.94;4918994;29;20329;-84
2023/04/01 04:36:18;;;;;;;2.57;1.10;;;;;;;9.74;nan;98405.41;4933903;29;20201;-84
2023/04/01 04:38:44;;;;;;;3.15;1.15;;;;;;;9.75;nan;98417.59;4933546;29;20260;-84
2023/04/01 04:41:11;;;;;;;1.70;1.17;;;;;;;9.78;nan;98398.97;4922316;29;20344;-84
2023/04/01 04:43:37;;;;;;;2.95;1.45;;;;;;;9.79;nan;98399.81;4940532;29;20648;-84
2023/04/01 04:46:12;;;;;;;6.57;1.10;;;;;;;9.79;nan;98400.63;4920771;29;20717;-85
2023/04/01 04:48:37;;;;;;;2.83;1.83;;;;;;;9.80;nan;98396.22;4927697;29;20664;-85
2023/04/01 04:51:03;;;;;;;2.33;1.27;;;;;;;9.81;nan;98388.25;4918638;29;20212;-84
2023/04/01 04:53:30;;;;;;;3.10;1.20;;;;;;;9.81;nan;98385.63;4957690;23;20242;-76
2023/04/01 04:55:55;;;;;;;3.00;1.42;;;;;;;9.80;nan;98396.22;4883800;29;20214;-76
2023/04/01 04:58:32;;;;;;;7.03;1.17;;;;;;;9.81;nan;98395.28;4891967;29;20222;-77
2023/04/01 05:00:58;;;;;;;1.25;1.08;;;;;;;9.78;nan;98385.03;4920082;29;20226;-76
2023/04/01 05:03:28;;;;;;;2.83;1.40;;;;;;;9.80;nan;98388.34;4920400;29;20320;-76
2023/04/01 05:05:53;;;;;;;3.20;1.70;;;;;;;9.81;nan;98387.41;4919464;29;20605;-76
2023/04/01 05:08:20;;;;;;;4.00;1.10;;;;;;;9.81;nan;98380.38;4920867;29;20202;-76
2023/04/01 05:10:46;;;;;;;5.10;1.60;;;;;;;9.82;nan;98373.34;4920513;29;20673;-77
2023/04/01 05:13:11;;;;;;;3.40;1.93;;;;;;;9.80;nan;98370.81;4906354;29;20444;-76
2023/04/01 05:15:37;;;;;;;1.77;1.35;;;;;;;9.81;nan;98369.06;4918357;29;20496;-76
2023/04/01 05:18:03;;;;;;;5.50;1.50;;;;;;;9.82;nan;98363.66;4905968;29;20229;-76
2023/04/01 05:20:29;;;;;;;4.30;2.30;;;;;;;9.82;nan;98361.06;4902899;29;20665;-76
2023/04/01 05:22:59;;;;;;;2.93;1.47;;;;;;;9.82;nan;98362.84;4912411;29;20269;-77
2023/04/01 05:25:25;;;;;;;4.20;1.27;;;;;;;9.83;nan;98362.72;4902956;29;20308;-76
2023/04/01 05:27:50;;;;;;;9.57;1.57;;;;;;;9.85;nan;98352.94;4905770;29;20277;-76
2023/04/01 05:30:16;;;;;;;4.13;1.00;;;;;;;9.88;nan;98363.19;4920829;29;20529;-76
2023/04/01 05:32:56;;;;;;;2.65;1.10;;;;;;;9.90;nan;98363.88;4921467;29;20209;-77
2023/04/01 05:35:23;;;;;;;5.63;1.10;;;;;;;9.93;nan;98365.44;4905389;29;20572;-76
2023/04/01 05:37:48;;;;;;;3.03;1.05;;;;;;;9.94;nan;98357.44;4905606;29;20286;-76
2023/04/01 05:40:14;;;;;;;5.77;1.30;;;;;;;9.98;nan;98369.34;4914713;29;20222;-76
2023/04/01 05:42:39;;;;;;;4.83;1.40;;;;;;;9.98;nan;98350.97;4906154;29;20210;-76
2023/04/01 05:45:06;;;;;;;6.00;0.90;;;;;;;10.01;nan;98356.94;4906613;29;20230;-76
2023/04/01 05:47:50;;;;;;;4.93;1.10;;;;;;;10.02;nan;98363.84;4907145;29;20585;-76
2023/04/01 05:50:17;;;;;;;4.40;1.02;;;;;;;10.02;nan;98363.84;4905685;29;20209;-77
2023/04/01 05:52:42;;;;;;;2.47;1.10;;;;;;;10.06;nan;98349.53;4922090;29;20692;-77
2023/04/01 05:55:09;;;;;;;1.42;1.00;;;;;;;10.08;nan;98355.50;4907537;29;20249;-76
2023/04/01 05:57:34;;;;;;;5.57;1.63;;;;;;;10.11;nan;98345.56;4922473;29;20226;-77
2023/04/01 06:00:00;;;;;;;2.80;1.10;;;;;;;10.13;nan;98351.53;4906122;29;20441;-76
2023/04/01 06:02:25;;;;;;;3.67;1.20;;;;;;;10.13;nan;98348.09;4907475;29;20205;-77
2023/04/01 06:05:02;;;;;;;4.10;1.70;;;;;;;10.15;nan;98354.03;4907058;29;20603;-77
2023/04/01 06:07:28;;;;;;;3.60;1.13;;;;;;;10.16;nan;98353.91;4913532;29;20551;-78
2023/04/01 06:09:54;;;;;;;4.82;1.85;;;;;;;10.18;nan;98332.81;4931112;29;20206;-77
2023/04/01 06:12:38;;;;;;;2.00;1.10;;;;;;;10.20;nan;98357.94;4916512;29;20211;-77
2023/04/01 06:15:20;;;;;;;4.18;1.77;;;;;;;10.24;nan;98355.06;4931332;29;21030;-78
2023/04/01 06:18:02;;;;;;;1.38;1.25;;;;;;;10.26;nan;98347.88;4915887;29;20234;-78
2023/04/01 06:20:53;;;;;;;4.88;1.10;;;;;;;10.31;nan;98348.38;4913973;29;20210;-79
2023/04/01 06:23:24;;;;;;;3.70;1.17;;;;;;;10.33;nan;98347.28;4914992;29;20221;-78
2023/04/01 06:26:28;;;;;;;2.10;1.20;;;;;;;10.37;nan;98356.59;4907099;29;20213;-78
2023/04/01 06:29:16;;;;;;;6.28;1.25;;;;;;;10.39;nan;98343.31;4881233;29;20694;-77
2023/04/01 06:32:09;;;;;;;2.95;1.10;;;;;;;10.39;nan;98341.53;4927395;29;20222;-78
2023/04/01 06:34:59;;;;;;;2.88;1.10;;;;;;;10.43;nan;98339.50;4915161;29;20750;-78
2023/04/01 06:38:00;;;;;;;2.10;0.90;;;;;;;10.45;nan;98349.84;4914288;29;20246;-76
2023/04/01 06:40:29;;;;;;;3.72;1.25;;;;;;;10.48;nan;98349.63;4907470;29;20212;-77
2023/04/01 06:43:13;;;;;;;5.65;1.48;;;;;;;10.53;nan;98342.16;4924918;29;20305;-77
2023/04/01 06:46:03;;;;;;;2.28;0.90;;;;;;;10.58;nan;98356.56;4910657;29;20217;-77
2023/04/01 06:48:50;;;;;;;2.92;0.90;;;;;;;10.60;nan;98348.59;4909592;29;20256;-76
2023/04/01 06:51:40;;;;;;;5.97;1.40;;;;;;;10.62;nan;98344.03;4910139;29;20577;-76
2023/04/01 06:54:26;;;;;;;1.00;0.77;;;;;;;10.65;nan;98351.66;4908746;29;20265;-76
2023/04/01 06:57:21;;;;;;;3.95;1.20;;;;;;;10.70;nan;98353.91;4909253;29;20224;-76
2023/04/01 06:59:48;;;;;;;3.53;1.40;;;;;;;10.73;nan;98343.13;4910042;29;20292;-76
2023/04/01 07:02:25;;;;;;;1.90;0.80;;;;;;;10.76;nan;98338.44;4923247;29;20821;-77
2023/04/01 07:04:55;;;;;;;2.13;0.80;;;;;;;10.78;nan;98338.34;4907712;29;20215;-78
2023/04/01 07:07:33;;;;;;;2.47;1.35;;;;;;;10.79;nan;98356.56;4916134;29;20268;-77
2023/04/01 07:10:09;;;;;;;3.15;0.80;;;;;;;10.82;nan;98345.81;4907343;29;20216;-77
2023/04/01 07:12:58;;;;;;;4.60;1.10;;;;;;;10.85;nan;98352.59;4909531;29;20587;-77
2023/04/01 07:15:55;;;;;;;4.05;0.95;;;;;;;10.88;nan;98354.13;4909756;29;20346;-77
2023/04/01 07:18:33;;;;;;;3.20;1.15;;;;;;;10.93;nan;98352.78;4907620;29;20235;-77
2023/04/01 07:20:59;;;;;;;3.67;0.80;;;;;;;11.00;nan;98350.47;4908683;29;20198;-77
2023/04/01 07:23:31;;;;;;;0.77;0.70;;;;;;;11.05;nan;98356.16;4910393;29;20201;-77
2023/04/01 07:26:22;;;;;;;4.72;1.00;;;;;;;11.07;nan;98352.44;4907767;29;20194;-77
2023/04/01 07:29:11;;;;;;;4.35;1.02;;;;;;;11.08;nan;98348.00;4921836;29;20205;-77
2023/04/01 07:32:19;;;;;;;2.38;1.00;;;;;;;11.11;nan;98355.63;4924744;29;21244;-77
2023/04/01 07:35:17;;;;;;;1.25;0.80;;;;;;;11.11;nan;98350.38;4909588;29;20190;-76
2023/04/01 07:38:00;;;;;;;3.70;1.80;;;;;;;11.13;nan;98348.44;4907596;29;20229;-76
2023/04/01 07:40:55;;;;;;;3.97;1.20;;;;;;;11.11;nan;98346.91;4911820;29;20209;-77
2023/04/01 07:43:38;;;;;;;2.15;1.30;;;;;;;11.11;nan;98365.31;4919909;29;20228;-76
2023/04/01 07:46:42;;;;;;;1.73;1.00;;;;;;;11.08;nan;98366.41;4908493;29;20193;-76
2023/04/01 07:49:31;;;;;;;2.47;0.93;;;;;;;11.07;nan;98376.09;4924837;29;20195;-76
2023/04/01 07:52:20;;;;;;;3.13;0.88;;;;;;;11.07;nan;98380.50;4923559;29;20241;-76
2023/04/01 07:55:23;;;;;;;2.65;1.30;;;;;;;11.06;nan;98384.09;4915185;29;20703;-77
2023/04/01 07:57:49;;;;;;;1.13;0.95;;;;;;;11.06;nan;98373.59;4905819;29;20222;-77
2023/04/01 08:00:29;;;;;;;3.63;1.20;;;;;;;11.10;nan;98380.25;4908351;29;20202;-76
2023/04/01 08:03:02;;;;;;;2.83;1.20;;;;;;;11.14;nan;98386.06;4906408;29;20199;-76
2023/04/01 08:05:34;;;;;;;3.27;0.80;;;;;;;11.16;nan;98387.59;4922094;29;20191;-76
2023/04/01 08:08:26;;;;;;;2.20;1.20;;;;;;;11.18;nan;98390.09;4922428;29;20190;-76
2023/04/01 08:11:18;;;;;;;3.28;1.38;;;;;;;11.21;nan;98395.13;4908274;29;20214;-77
2023/04/01 08:14:15;;;;;;;2.20;1.20;;;;;;;11.22;nan;98392.34;4908073;29;20730;-76
2023/04/01 08:17:14;;;;;;;3.55;1.25;;;;;;;11.24;nan;98393.03;4907973;29;20205;-77
2023/04/01 08:20:03;;;;;;;2.65;2.05;;;;;;;11.25;nan;98392.06;4900944;29;20689;-76
2023/04/01 08:22:35;;;;;;;3.47;0.82;;;;;;;11.27;nan;98395.41;4908018;29;20234;-76
2023/04/01 08:25:07;;;;;;;2.65;0.82;;;;;;;11.30;nan;98405.66;4923065;29;20226;-77
2023/04/01 08:28:18;;;;;;;2.28;0.80;;;;;;;11.33;nan;98404.56;4923500;29;20190;-77
2023/04/01 08:30:47;;;;;;;3.85;3.17;;;;;;;11.36;nan;98406.09;4905968;29;20194;-77
2023/04/01 08:33:32;;;;;;;2.00;1.00;;;;;;;11.38;nan;98407.63;4922912;29;20278;-77
2023/04/01 08:36:12;;;;;;;2.13;1.10;;;;;;;11.43;nan;98399.34;4906883;29;20541;-77
2023/04/01 08:38:44;;;;;;;1.52;1.02;;;;;;;11.46;nan;98405.16;4909768;29;20257;-78
2023/04/01 08:41:22;;;;;;;2.20;1.20;;;;;;;11.48;nan;98412.94;4920824;29;20739;-78
2023/04/01 08:44:45;;;;;;;1.10;1.00;;;;;;;11.50;nan;98405.72;4907115;29;20228;-78
2023/04/01 08:47:20;;;;;;;1.55;0.90;;;;;;;11.49;nan;98415.41;4921288;29;20203;-78
2023/04/01 08:50:16;;;;;;;3.83;1.55;;;;;;;11.50;nan;98411.84;4913471;29;20378;-79
2023/04/01 08:53:03;;;;;;;2.85;1.20;;;;;;;11.49;nan;98419.84;4905499;29;20286;-78
2023/04/01 08:55:44;;;;;;;1.92;1.00;;;;;;;11.48;nan;98420.81;4920594;29;20731;-78
2023/04/01 08:58:24;;;;;;;2.50;0.80;;;;;;;11.48;nan;98418.19;4920902;29;20780;-80
2023/04/01 09:01:36;;;;;;;6.32;1.08;;;;;;;11.47;nan;98427.03;4921506;29;20204;-78
2023/04/01 09:04:31;;;;;;;1.65;1.13;;;;;;;11.51;nan;98421.38;4913328;29;20143;-78
2023/04/01 09:06:59;;;;;;;1.70;1.23;;;;;;;11.53;nan;98416.00;4922285;29;20568;-82
2023/04/01 09:09:48;;;;;;;1.63;0.80;;;;;;;11.51;nan;98416.13;4922151;29;20259;-80
2023/04/01 09:12:16;;;;;;;0.95;0.65;;;;;;;11.50;nan;98422.34;4906781;29;20197;-79
2023/04/01 09:15:01;;;;;;;4.97;1.27;;;;;;;11.50;nan;98419.72;4906669;29;20254;-80
2023/04/01 09:18:01;;;;;;;1.73;1.25;;;;;;;11.54;nan;98419.47;4907240;29;20567;-80
2023/04/01 09:20:41;;;;;;;2.25;1.05;;;;;;;11.54;nan;98428.19;4907788;29;20258;-80
2023/04/01 09:23:29;;;;;;;1.13;0.80;;;;;;;11.58;nan;98423.47;4907383;29;20505;-80
2023/04/01 09:25:57;;;;;;;2.58;0.75;;;;;;;11.58;nan;98434.00;4922193;29;20230;-80
2023/04/01 09:28:35;;;;;;;3.38;0.80;;;;;;;11.54;nan;98422.91;4921829;29;20194;-80
2023/04/01 09:31:14;;;;;;;6.85;1.30;;;;;;;11.54;nan;98419.47;4923959;29;20665;-82
2023/04/01 09:34:31;;;;;;;2.45;1.27;;;;;;;11.55;nan;98421.13;4906835;29;20375;-80
2023/04/01 09:37:27;;;;;;;4.88;1.20;;;;;;;11.54;nan;98440.50;4922469;29;20210;-81
2023/04/01 09:40:28;;;;;;;3.50;1.13;;;;;;;11.55;nan;98429.81;4919536;29;20222;-80
2023/04/01 09:43:28;;;;;;;2.10;0.90;;;;;;;11.58;nan;98431.34;4928261;29;20202;-78
2023/04/01 09:46:10;;;;;;;2.30;0.95;;;;;;;11.60;nan;98432.91;4908186;29;20619;-78
2023/04/01 09:48:59;;;;;;;1.70;1.60;;;;;;;11.63;nan;98435.25;4910603;29;20202;-77
2023/04/01 09:51:51;;;;;;;1.83;1.38;;;;;;;11.68;nan;98438.31;4910012;29;20294;-77
2023/04/01 09:54:38;;;;;;;1.42;0.73;;;;;;;11.73;nan;98444.03;4909578;29;20263;-77
2023/04/01 09:57:42;;;;;;;1.42;1.25;;;;;;;11.80;nan;98444.34;4925667;29;20234;-77
2023/04/01 10:00:39;;;;;;;1.80;0.90;;;;;;;11.86;nan;98443.00;4924871;29;20225;-77
2023/04/01 10:03:30;;;;;;;1.85;1.00;;;;;;;11.90;nan;98444.38;4914133;29;20218;-77
2023/04/01 10:06:10;;;;;;;1.87;1.00;;;;;;;12.00;nan;98444.41;4917617;29;20451;-77
2023/04/01 10:09:14;;;;;;;3.40;1.10;;;;;;;12.02;nan;98445.94;4909863;29;21031;-77
2023/04/01 10:11:59;;;;;;;2.55;1.20;;;;;;;12.07;nan;98441.09;4925486;29;20221;-77
2023/04/01 10:14:37;;;;;;;2.13;1.10;;;;;;;12.10;nan;98448.72;4910374;29;20252;-78
2023/04/01 10:17:32;;;;;;;1.98;1.08;;;;;;;12.13;nan;98456.34;4909042;29;20697;-77
2023/04/01 10:20:20;;;;;;;0.80;0.63;;;;;;;12.15;nan;98470.22;4925460;29;20217;-77
2023/04/01 10:22:49;;;;;;;2.03;1.20;;;;;;;12.20;nan;98454.00;4908539;29;20444;-77
2023/04/01 10:25:52;;;;;;;1.20;0.80;;;;;;;12.20;nan;98453.16;4908714;29;20237;-77
2023/04/01 10:28:36;;;;;;;3.90;1.35;;;;;;;12.18;nan;98451.50;4925939;29;20215;-78
2023/04/01 10:31:22;;;;;;;1.10;0.93;;;;;;;12.15;nan;98454.41;4911994;29;20212;-77
2023/04/01 10:34:23;;;;;;;1.25;1.00;;;;;;;12.16;nan;98460.50;4911543;29;20229;-78
2023/04/01 10:37:18;;;;;;;2.80;1.30;;;;;;;12.18;nan;98463.84;4891815;29;20231;-77
2023/04/01 10:39:56;;;;;;;1.00;0.80;;;;;;;12.22;nan;98467.03;4908736;29;20235;-77
2023/04/01 10:42:56;;;;;;;1.75;0.90;;;;;;;12.20;nan;98461.06;4909559;29;20218;-77
2023/04/01 10:46:15;;;;;;;1.50;0.77;;;;;;;12.22;nan;98470.50;4903726;29;20214;-77
2023/04/01 10:49:00;;;;;;;1.45;0.70;;;;;;;12.25;nan;98474.66;4926114;29;20231;-78
2023/04/01 10:51:55;;;;;;;1.15;1.02;;;;;;;12.30;nan;98472.44;4925856;29;20210;-77
2023/04/01 10:54:49;;;;;;;1.63;1.10;;;;;;;12.35;nan;98462.34;4902202;29;20249;-78
2023/04/01 10:57:42;;;;;;;1.20;0.80;;;;;;;12.39;nan;98467.22;4909931;29;20240;-79
2023/04/01 11:00:52;;;;;;;2.70;2.50;;;;;;;12.40;nan;98466.22;4908791;29;20233;-78
2023/04/01 11:03:56;;;;;;;0.85;0.85;;;;;;;12.39;nan;98467.22;4909489;29;20304;-79
2023/04/01 11:06:52;;;;;;;1.43;0.90;;;;;;;12.39;nan;98468.97;4893239;29;20590;-78
2023/04/01 11:09:51;;;;;;;4.35;2.58;;;;;;;12.42;nan;98470.50;4887260;29;20454;-78
2023/04/01 11:12:50;;;;;;;2.75;1.50;;;;;;;12.43;nan;98477.47;4907899;29;20221;-80
2023/04/01 11:15:52;;;;;;;1.55;1.13;;;;;;;12.39;nan;98477.75;4922566;29;20646;-79
2023/04/01 11:18:33;;;;;;;0.80;0.80;;;;;;;12.37;nan;98471.78;4910625;29;20224;-79
2023/04/01 11:21:30;;;;;;;1.60;0.93;;;;;;;12.33;nan;98469.53;4906977;29;20233;-77
2023/04/01 11:24:21;;;;;;;2.10;0.90;;;;;;;12.34;nan;98473.81;4923929;29;20290;-78
2023/04/01 11:27:05;;;;;;;1.15;0.80;;;;;;;12.34;nan;98473.81;4907351;29;20241;-78
2023/04/01 11:30:07;;;;;;;2.13;1.25;;;;;;;12.33;nan;98480.06;4923243;29;20218;-78
2023/04/01 11:32:39;;;;;;;1.10;1.00;;;;;;;12.34;nan;98481.72;4923315;29;20265;-78
2023/04/01 11:35:19;;;;;;;2.00;1.00;;;;;;;12.37;nan;98470.94;4906790;29;20461;-78
2023/04/01 11:37:57;;;;;;;1.70;1.52;;;;;;;12.40;nan;98478.56;4906870;29;20498;-79
2023/04/01 11:41:21;;;;;;;1.75;0.80;;;;;;;12.42;nan;98471.34;4908460;29;20730;-78
2023/04/01 11:44:19;;;;;;;1.60;1.48;;;;;;;12.41;nan;98485.47;4892699;29;20301;-79
2023/04/01 11:47:50;;;;;;;1.67;1.10;;;;;;;12.43;nan;98485.38;4904073;29;20218;-78
2023/04/01 11:50:57;;;;;;;1.92;1.52;;;;;;;12.45;nan;98489.53;4905680;29;20218;-79
2023/04/01 11:53:43;;;;;;;1.02;0.90;;;;;;;12.44;nan;98485.22;4860977;29;20255;-80
2023/04/01 11:56:19;;;;;;;2.55;1.10;;;;;;;12.43;nan;98478.28;4907960;29;20229;-78
2023/04/01 11:58:53;;;;;;;2.65;1.70;;;;;;;12.42;nan;98484.50;4907869;29;20262;-80
2023/04/01 12:01:50;;;;;;;1.73;1.02;;;;;;;12.42;nan;98483.69;4908194;29;20252;-79
2023/04/01 12:04:26;;;;;;;3.17;1.70;;;;;;;12.42;nan;98494.22;4906224;29;20345;-78
2023/04/01 12:07:06;;;;;;;1.10;1.00;;;;;;;12.44;nan;98490.47;4907968;29;20211;-78
2023/04/01 12:10:09;;;;;;;1.60;1.45;;;;;;;12.48;nan;98499.78;4907692;29;20269;-78
2023/04/01 12:13:12;;;;;;;3.45;1.70;;;;;;;12.46;nan;98493.81;4907660;29;20219;-79
2023/04/01 12:15:55;;;;;;;2.22;1.10;;;;;;;12.49;nan;98484.81;4907547;29;20232;-80
2023/04/01 12:18:33;;;;;;;2.35;1.35;;;;;;;12.47;nan;98490.19;4907772;29;20241;-80
2023/04/01 12:21:17;;;;;;;1.98;1.75;;;;;;;12.51;nan;98486.34;4907172;29;20252;-78
2023/04/01 12:24:07;;;;;;;2.65;1.60;;;;;;;12.52;nan;98482.72;4907306;29;20234;-78
2023/04/01 12:26:52;;;;;;;4.50;1.23;;;;;;;12.54;nan;98495.75;4899004;29;20694;-78
2023/04/01 12:30:00;;;;;;;1.35;1.25;;;;;;;12.55;nan;98492.16;4908117;29;20738;-78
2023/04/01 12:32:41;;;;;;;2.25;1.67;;;;;;;12.56;nan;98478.84;4907432;29;20220;-78
2023/04/01 12:35:26;;;;;;;1.30;1.10;;;;;;;12.61;nan;98476.66;4906937;29;20818;-78
2023/04/01 12:38:18;;;;;;;2.55;1.50;;;;;;;12.67;nan;98488.44;4907045;29;20715;-78
2023/04/01 12:40:51;;;;;;;5.50;2.53;;;;;;;12.71;nan;98473.16;4907397;29;20695;-80
2023/04/01 12:43:52;;;;;;;1.25;0.95;;;;;;;12.73;nan;98469.41;4907652;29;20223;-78
2023/04/01 12:46:55;;;;;;;2.13;1.10;;;;;;;12.74;nan;98472.88;4898599;29;20237;-78